Time;durP1;ratioP1;P1;durP2;ratioP2;P2;SDS_P1;SDS_P2;PMS_P1;PMS_P2;Temp;Humidity;BMP_temperature;BMP_pressure;BME280_temperature;BME280_humidity;BME280_pressure;Samples;Min_cycle;Max_cycle;Signal;HPM_P1;HPM_P2
2022/04/01 00:02:21;;;;;;;3.60;2.00;;;6.90;99.90;;;;;;5054821;28;20967;-54
2022/04/01 00:04:48;;;;;;;4.60;2.10;;;6.80;99.90;;;;;;5055163;28;20796;-55
2022/04/01 00:07:17;;;;;;;3.63;1.70;;;6.80;99.90;;;;;;5054911;28;20867;-54
2022/04/01 00:09:44;;;;;;;3.85;1.70;;;6.70;99.90;;;;;;5055012;28;20770;-52
2022/04/01 00:12:12;;;;;;;3.55;2.03;;;6.70;99.90;;;;;;5054890;28;20523;-49
2022/04/01 00:14:39;;;;;;;4.28;2.15;;;6.60;99.90;;;;;;5055249;28;20471;-53
2022/04/01 00:17:06;;;;;;;3.65;1.92;;;6.50;99.90;;;;;;5053876;28;20464;-51
2022/04/01 00:19:33;;;;;;;3.20;2.00;;;6.60;99.90;;;;;;5054670;28;20409;-49
2022/04/01 00:22:00;;;;;;;3.38;2.00;;;6.60;99.90;;;;;;5054552;28;20527;-54
2022/04/01 00:24:29;;;;;;;3.50;2.10;;;6.60;99.90;;;;;;5055251;28;20421;-54
2022/04/01 00:26:56;;;;;;;3.83;2.17;;;6.60;99.90;;;;;;5054274;28;20449;-50
2022/04/01 00:29:23;;;;;;;3.50;1.73;;;6.60;99.90;;;;;;5055183;28;20422;-51
2022/04/01 00:31:58;;;;;;;4.22;2.20;;;6.60;99.90;;;;;;5055019;28;20917;-53
2022/04/01 00:34:26;;;;;;;4.30;1.95;;;6.60;99.90;;;;;;5054802;28;20475;-52
2022/04/01 00:36:54;;;;;;;4.55;1.95;;;6.60;99.90;;;;;;5054984;28;20528;-52
2022/04/01 00:39:22;;;;;;;4.07;2.00;;;6.60;99.90;;;;;;5053528;28;20425;-53
2022/04/01 00:41:51;;;;;;;4.03;2.15;;;6.50;99.90;;;;;;5052292;28;20429;-52
2022/04/01 00:44:20;;;;;;;7.00;2.30;;;6.50;99.90;;;;;;5052966;28;20761;-53
2022/04/01 00:46:49;;;;;;;3.88;1.90;;;6.60;99.90;;;;;;5053783;28;20852;-55
2022/04/01 00:49:17;;;;;;;4.53;2.08;;;6.70;99.90;;;;;;5053958;28;20511;-55
2022/04/01 00:51:45;;;;;;;4.47;2.47;;;6.70;99.90;;;;;;5054594;28;20462;-54
2022/04/01 00:54:12;;;;;;;5.00;2.05;;;6.70;99.90;;;;;;5053084;28;20515;-50
2022/04/01 00:56:40;;;;;;;3.88;2.50;;;6.70;99.90;;;;;;5052908;28;20457;-53
2022/04/01 00:59:09;;;;;;;3.60;1.80;;;6.50;99.90;;;;;;5052981;28;20587;-54
2022/04/01 01:01:37;;;;;;;4.70;2.03;;;6.40;99.90;;;;;;5053121;28;20507;-50
2022/04/01 01:04:07;;;;;;;4.40;2.38;;;6.40;99.90;;;;;;5052998;28;20749;-52
2022/04/01 01:06:38;;;;;;;3.70;2.30;;;6.20;99.90;;;;;;5053457;28;20947;-53
2022/04/01 01:09:05;;;;;;;3.90;1.90;;;6.30;99.90;;;;;;5053705;28;20428;-51
2022/04/01 01:11:32;;;;;;;3.72;1.83;;;6.30;99.90;;;;;;5054319;28;20490;-51
2022/04/01 01:14:00;;;;;;;4.22;1.70;;;6.40;99.90;;;;;;5053485;28;20487;-54
2022/04/01 01:16:28;;;;;;;3.90;1.70;;;6.40;99.90;;;;;;5054186;28;20834;-51
2022/04/01 01:19:02;;;;;;;4.07;1.83;;;6.40;99.90;;;;;;5054961;28;20845;-53
2022/04/01 01:21:30;;;;;;;3.85;1.70;;;6.20;99.90;;;;;;5058176;28;20887;-57
2022/04/01 01:24:03;;;;;;;3.00;1.70;;;6.20;99.90;;;;;;5058108;28;20424;-54
2022/04/01 01:26:32;;;;;;;4.15;2.05;;;6.20;99.90;;;;;;5058251;28;20718;-53
2022/04/01 01:28:59;;;;;;;3.30;1.58;;;6.20;99.90;;;;;;5058118;28;20421;-53
2022/04/01 01:31:27;;;;;;;3.53;1.50;;;6.30;99.90;;;;;;5057874;28;20457;-53
2022/04/01 01:33:56;;;;;;;2.88;1.60;;;6.30;99.90;;;;;;5058051;28;20465;-54
2022/04/01 01:36:24;;;;;;;2.50;1.50;;;6.20;99.90;;;;;;5058151;28;20787;-53
2022/04/01 01:38:52;;;;;;;3.10;1.60;;;6.10;99.90;;;;;;5058058;28;20512;-48
2022/04/01 01:41:19;;;;;;;3.45;1.85;;;6.20;99.90;;;;;;5057599;28;20483;-49
2022/04/01 01:43:48;;;;;;;3.80;2.10;;;6.20;99.90;;;;;;5057796;28;20457;-50
2022/04/01 01:46:16;;;;;;;3.38;1.73;;;6.20;99.90;;;;;;5057386;28;20748;-54
2022/04/01 01:48:43;;;;;;;2.83;1.40;;;6.20;99.90;;;;;;5057269;28;20417;-49
2022/04/01 01:56:41;;;;;;;3.75;1.60;;;6.00;99.90;;;;;;5056981;28;20408;-52
2022/04/01 01:59:11;;;;;;;2.30;1.50;;;6.10;99.90;;;;;;5057535;28;20449;-47
2022/04/01 02:01:38;;;;;;;3.33;1.90;;;6.10;99.90;;;;;;5057535;28;20433;-52
2022/04/01 02:04:06;;;;;;;3.08;1.50;;;6.10;99.90;;;;;;5057226;28;20905;-53
2022/04/01 02:06:33;;;;;;;3.50;1.90;;;5.80;99.90;;;;;;5057418;28;20446;-54
2022/04/01 02:09:00;;;;;;;3.50;1.95;;;5.70;99.90;;;;;;5057498;28;20741;-53
2022/04/01 02:11:28;;;;;;;4.00;1.87;;;5.80;99.90;;;;;;5057408;28;20425;-48
2022/04/01 02:13:55;;;;;;;3.10;1.83;;;5.90;99.90;;;;;;5057288;28;20481;-48
2022/04/01 02:16:23;;;;;;;3.20;1.80;;;5.90;99.90;;;;;;5057105;28;20508;-51
2022/04/01 02:18:51;;;;;;;4.60;2.20;;;5.90;99.90;;;;;;5057163;28;20578;-52
2022/04/01 02:21:18;;;;;;;3.78;1.63;;;5.90;99.90;;;;;;5056395;28;20785;-52
2022/04/01 02:23:47;;;;;;;3.75;2.20;;;5.80;99.90;;;;;;5057149;28;20424;-52
2022/04/01 02:26:15;;;;;;;3.47;1.60;;;5.90;99.90;;;;;;5056271;28;20439;-52
2022/04/01 02:28:43;;;;;;;3.97;2.17;;;6.00;99.90;;;;;;5056897;28;20440;-52
2022/04/01 02:31:11;;;;;;;2.90;1.80;;;6.10;99.90;;;;;;5056888;28;20461;-52
2022/04/01 02:33:40;;;;;;;3.92;1.50;;;6.20;99.90;;;;;;5057324;28;20417;-52
2022/04/01 02:36:10;;;;;;;2.95;1.45;;;6.30;99.90;;;;;;5056777;28;20440;-52
2022/04/01 02:38:39;;;;;;;2.42;1.30;;;6.40;99.90;;;;;;5057131;28;20425;-53
2022/04/01 02:41:06;;;;;;;2.80;1.50;;;6.50;99.90;;;;;;5056716;28;20420;-49
2022/04/01 02:43:34;;;;;;;3.70;1.73;;;6.40;99.90;;;;;;5056687;28;20425;-49
2022/04/01 02:46:01;;;;;;;2.00;1.20;;;6.40;99.90;;;;;;5056653;28;20860;-48
2022/04/01 02:48:28;;;;;;;2.80;1.70;;;6.40;99.90;;;;;;5056670;28;20421;-53
2022/04/01 02:50:56;;;;;;;3.20;1.60;;;6.30;99.90;;;;;;5056534;28;20417;-47
2022/04/01 02:53:23;;;;;;;2.30;1.33;;;6.30;99.90;;;;;;5056192;28;20832;-53
2022/04/01 02:55:50;;;;;;;2.65;1.50;;;6.40;99.90;;;;;;5055079;28;20455;-52
2022/04/01 02:58:17;;;;;;;3.50;1.85;;;6.40;99.90;;;;;;5054859;28;20421;-50
2022/04/01 03:00:44;;;;;;;3.88;2.15;;;6.20;99.90;;;;;;5054662;28;20461;-51
2022/04/01 03:03:11;;;;;;;2.72;1.60;;;6.10;99.90;;;;;;5054628;28;20428;-52
2022/04/01 03:05:40;;;;;;;4.00;2.10;;;6.00;99.90;;;;;;5055558;28;20464;-50
2022/04/01 03:08:09;;;;;;;4.00;1.83;;;6.00;99.90;;;;;;5055141;28;20868;-51
2022/04/01 03:10:39;;;;;;;4.13;1.95;;;6.10;99.90;;;;;;5055867;28;20436;-51
2022/04/01 03:13:08;;;;;;;5.15;2.95;;;6.10;99.90;;;;;;5056072;28;20445;-51
2022/04/01 03:15:36;;;;;;;3.13;1.80;;;6.00;99.90;;;;;;5056057;28;20421;-50
2022/04/01 03:18:04;;;;;;;3.90;2.13;;;6.00;99.90;;;;;;5055836;28;20424;-53
2022/04/01 03:20:35;;;;;;;4.18;1.90;;;6.10;99.90;;;;;;5055869;28;20429;-49
2022/04/01 03:23:03;;;;;;;2.70;1.80;;;6.10;99.90;;;;;;5055676;28;20432;-49
2022/04/01 03:25:32;;;;;;;4.15;2.28;;;6.20;99.90;;;;;;5055787;28;20456;-47
2022/04/01 03:28:01;;;;;;;3.97;1.95;;;6.20;99.90;;;;;;5056158;28;20524;-48
2022/04/01 03:30:29;;;;;;;5.22;2.53;;;6.20;99.90;;;;;;5056027;28;20427;-52
2022/04/01 03:32:56;;;;;;;5.73;3.23;;;6.20;99.90;;;;;;5055808;28;20868;-52
2022/04/01 03:35:24;;;;;;;5.95;3.30;;;6.20;99.90;;;;;;5056039;28;20725;-50
2022/04/01 03:37:51;;;;;;;6.90;3.27;;;6.20;99.90;;;;;;5055219;28;20429;-54
2022/04/01 03:40:20;;;;;;;5.85;3.30;;;6.10;99.90;;;;;;5054667;28;20460;-47
2022/04/01 03:42:51;;;;;;;5.40;3.22;;;6.00;99.90;;;;;;5055243;28;20429;-52
2022/04/01 03:45:18;;;;;;;6.35;3.58;;;6.00;99.90;;;;;;5055338;28;20428;-49
2022/04/01 03:47:53;;;;;;;6.88;3.80;;;6.00;99.90;;;;;;5055350;28;20536;-50
2022/04/01 03:50:29;;;;;;;6.50;3.87;;;5.90;99.90;;;;;;5055334;28;20461;-51
2022/04/01 03:53:02;;;;;;;5.80;2.65;;;5.90;99.90;;;;;;5055371;28;20729;-50
2022/04/01 03:55:33;;;;;;;4.75;2.60;;;6.00;99.90;;;;;;5055064;28;20721;-50
2022/04/01 03:58:07;;;;;;;5.13;2.60;;;5.90;99.90;;;;;;5055680;28;20460;-53
2022/04/01 04:00:35;;;;;;;5.90;3.10;;;5.90;99.90;;;;;;5055189;28;20525;-53
2022/04/01 04:03:07;;;;;;;5.07;2.72;;;5.90;99.90;;;;;;5054976;28;20815;-53
2022/04/01 04:05:36;;;;;;;6.30;2.40;;;5.80;99.90;;;;;;5055374;28;20650;-50
2022/04/01 04:08:03;;;;;;;4.30;1.87;;;5.80;99.90;;;;;;5055332;28;20526;-55
2022/04/01 04:10:32;;;;;;;3.28;1.90;;;5.90;99.90;;;;;;5055063;28;20703;-53
2022/04/01 04:13:00;;;;;;;3.97;2.33;;;5.90;99.90;;;;;;5054476;28;20428;-51
2022/04/01 04:15:39;;;;;;;3.67;1.80;;;5.70;99.90;;;;;;5054844;28;20429;-49
2022/04/01 04:18:11;;;;;;;4.37;1.90;;;5.80;99.90;;;;;;5055020;28;20508;-49
2022/04/01 04:20:43;;;;;;;4.93;2.20;;;5.40;99.90;;;;;;5054941;28;20425;-54
2022/04/01 04:23:17;;;;;;;3.95;1.85;;;5.60;99.90;;;;;;5054749;28;20421;-50
2022/04/01 04:25:59;;;;;;;5.63;2.40;;;5.50;99.90;;;;;;5053260;28;20848;-52
2022/04/01 04:28:27;;;;;;;5.47;2.22;;;5.70;99.90;;;;;;5052993;28;20946;-54
2022/04/01 04:31:02;;;;;;;3.47;2.08;;;5.70;99.90;;;;;;5051570;28;20424;-49
2022/04/01 04:33:31;;;;;;;4.53;2.17;;;5.80;99.90;;;;;;5051637;28;20485;-51
2022/04/01 04:36:04;;;;;;;4.30;2.50;;;5.80;99.90;;;;;;5052837;28;20701;-52
2022/04/01 04:38:37;;;;;;;3.75;1.88;;;5.60;99.90;;;;;;5052556;28;20406;-54
2022/04/01 04:41:08;;;;;;;4.28;2.00;;;5.50;99.90;;;;;;5053129;28;20429;-50
2022/04/01 04:43:41;;;;;;;3.33;1.70;;;5.50;99.90;;;;;;5053632;28;20524;-51
2022/04/01 04:46:10;;;;;;;4.63;1.90;;;5.40;99.90;;;;;;5054352;28;20871;-49
2022/04/01 04:48:42;;;;;;;4.18;2.00;;;5.30;99.90;;;;;;5053897;28;20433;-50
2022/04/01 04:51:10;;;;;;;4.35;2.13;;;5.10;99.90;;;;;;5053611;28;20717;-52
2022/04/01 04:53:39;;;;;;;5.22;2.40;;;5.20;99.90;;;;;;5054110;28;20840;-51
2022/04/01 04:56:07;;;;;;;4.60;2.00;;;5.30;99.90;;;;;;5057344;28;20471;-50
2022/04/01 04:58:39;;;;;;;5.63;2.20;;;5.60;99.90;;;;;;5057804;28;20476;-52
2022/04/01 05:01:17;;;;;;;4.75;2.35;;;5.70;99.90;;;;;;5057199;28;20439;-49
2022/04/01 05:04:01;;;;;;;5.53;2.83;;;5.50;99.90;;;;;;5057939;28;20424;-52
2022/04/01 05:06:33;;;;;;;4.63;2.08;;;5.40;99.90;;;;;;5057732;28;20523;-52
2022/04/01 05:09:06;;;;;;;5.30;2.30;;;5.40;99.90;;;;;;5058213;28;20436;-51
2022/04/01 05:11:45;;;;;;;5.10;1.88;;;5.40;99.90;;;;;;5058268;28;20425;-50
2022/04/01 05:14:25;;;;;;;4.85;1.77;;;5.30;99.90;;;;;;5057953;28;20723;-50
2022/04/01 05:16:54;;;;;;;3.63;1.63;;;5.30;99.90;;;;;;5058025;28;20429;-52
2022/04/01 05:19:26;;;;;;;3.25;1.95;;;5.30;99.90;;;;;;5058114;28;20522;-48
2022/04/01 05:22:03;;;;;;;3.10;1.90;;;5.20;99.90;;;;;;5058065;28;20879;-53
2022/04/01 05:24:39;;;;;;;3.90;2.13;;;5.20;99.90;;;;;;5058091;28;20500;-50
2022/04/01 05:27:10;;;;;;;4.22;1.63;;;5.20;99.90;;;;;;5057873;28;20447;-52
2022/04/01 05:29:42;;;;;;;3.30;1.80;;;5.10;99.90;;;;;;5057417;28;20468;-52
2022/04/01 05:32:11;;;;;;;4.63;2.38;;;5.10;99.90;;;;;;5057047;28;20506;-52
2022/04/01 05:34:44;;;;;;;3.17;1.83;;;5.10;99.90;;;;;;5056974;28;20432;-49
2022/04/01 05:37:13;;;;;;;4.07;1.90;;;5.10;99.90;;;;;;5056209;28;20433;-47
2022/04/01 05:39:41;;;;;;;5.60;2.35;;;5.10;99.90;;;;;;5055798;28;20465;-50
2022/04/01 05:42:08;;;;;;;3.70;2.20;;;5.10;99.90;;;;;;5054926;28;20538;-51
2022/04/01 05:44:36;;;;;;;5.65;2.45;;;4.80;99.90;;;;;;5054953;28;20457;-53
2022/04/01 05:47:06;;;;;;;3.70;2.00;;;4.80;99.90;;;;;;5055382;28;20798;-53
2022/04/01 05:49:40;;;;;;;3.47;1.70;;;5.00;99.90;;;;;;5055380;28;20413;-52
2022/04/01 05:52:09;;;;;;;3.85;2.22;;;5.10;99.90;;;;;;5054666;28;20603;-50
2022/04/01 05:54:37;;;;;;;4.85;2.00;;;5.10;99.90;;;;;;5053444;28;20417;-54
2022/04/01 05:57:05;;;;;;;4.90;2.10;;;5.00;99.90;;;;;;5054646;28;20429;-52
2022/04/01 05:59:33;;;;;;;3.28;1.88;;;5.00;99.90;;;;;;5053510;28;20786;-49
2022/04/01 06:02:21;;;;;;;5.10;2.70;;;5.00;99.90;;;;;;5052296;28;20487;-51
2022/04/01 06:05:06;;;;;;;4.45;2.10;;;4.90;99.90;;;;;;5052101;28;20453;-55
2022/04/01 06:07:39;;;;;;;4.33;2.50;;;4.90;99.90;;;;;;5053138;28;20490;-53
2022/04/01 06:10:09;;;;;;;3.53;2.00;;;4.80;99.90;;;;;;5053968;28;20524;-53
2022/04/01 06:12:47;;;;;;;4.40;2.50;;;4.80;99.90;;;;;;5052186;28;20432;-53
2022/04/01 06:15:20;;;;;;;3.42;1.70;;;4.80;99.90;;;;;;5044440;28;20427;-51
2022/04/01 06:18:05;;;;;;;4.25;2.33;;;4.80;99.90;;;;;;5051446;28;20436;-53
2022/04/01 06:20:38;;;;;;;3.78;2.30;;;4.70;99.90;;;;;;5042537;28;20435;-54
2022/04/01 06:23:07;;;;;;;4.40;2.45;;;4.60;99.90;;;;;;5048386;28;20497;-53
2022/04/01 06:25:44;;;;;;;5.22;2.50;;;4.70;99.90;;;;;;5047834;28;20817;-52
2022/04/01 06:28:17;;;;;;;5.15;2.00;;;4.70;99.90;;;;;;5049659;28;20468;-51
2022/04/01 06:30:45;;;;;;;5.15;2.20;;;4.70;99.90;;;;;;5050455;28;20429;-55
2022/04/01 06:33:29;;;;;;;6.20;2.75;;;4.80;99.90;;;;;;5049559;28;20542;-51
2022/04/01 06:36:01;;;;;;;3.60;2.00;;;4.60;99.90;;;;;;5044087;28;20529;-54
2022/04/01 06:38:38;;;;;;;5.78;2.75;;;4.80;99.90;;;;;;5036733;28;20422;-55
2022/04/01 06:41:07;;;;;;;4.03;2.75;;;5.00;99.90;;;;;;5037956;28;20464;-56
2022/04/01 06:43:35;;;;;;;4.93;2.55;;;5.20;99.90;;;;;;5047076;28;20508;-55
2022/04/01 06:46:02;;;;;;;4.90;2.60;;;5.40;99.90;;;;;;5048934;28;20435;-53
2022/04/01 06:48:30;;;;;;;4.28;2.17;;;5.60;99.90;;;;;;5048540;28;20528;-55
2022/04/01 06:50:59;;;;;;;5.55;2.83;;;5.50;99.90;;;;;;5043625;28;20425;-56
2022/04/01 06:53:26;;;;;;;3.50;2.15;;;5.10;99.90;;;;;;5052538;28;20528;-53
2022/04/01 06:55:54;;;;;;;4.43;2.30;;;4.80;99.90;;;;;;5052140;28;20502;-53
2022/04/01 06:58:21;;;;;;;4.13;2.13;;;4.60;99.90;;;;;;5037370;28;20481;-59
2022/04/01 07:00:48;;;;;;;3.78;2.20;;;4.80;99.90;;;;;;5048509;28;20791;-56
2022/04/01 07:03:17;;;;;;;5.03;2.50;;;5.00;99.90;;;;;;5038359;28;20828;-56
2022/04/01 07:05:44;;;;;;;4.00;2.28;;;5.40;99.90;;;;;;5041868;28;20924;-55
2022/04/01 07:08:12;;;;;;;3.83;2.42;;;5.80;99.90;;;;;;5050419;28;20516;-54
2022/04/01 07:10:40;;;;;;;6.03;3.20;;;5.50;99.90;;;;;;5051151;28;20515;-54
2022/04/01 07:13:08;;;;;;;6.22;4.40;;;5.30;99.90;;;;;;5036376;28;20548;-54
2022/04/01 07:15:35;;;;;;;11.18;7.68;;;5.20;99.90;;;;;;5050627;28;20758;-55
2022/04/01 07:18:02;;;;;;;6.30;3.97;;;5.00;99.90;;;;;;5037921;28;20851;-54
2022/04/01 07:20:29;;;;;;;14.70;11.20;;;4.80;99.90;;;;;;5045711;28;20433;-53
2022/04/01 07:22:56;;;;;;;6.28;3.80;;;4.70;99.90;;;;;;5035236;28;20528;-53
2022/04/01 07:25:25;;;;;;;6.95;3.65;;;4.70;99.90;;;;;;5049842;28;20512;-49
2022/04/01 07:27:53;;;;;;;5.43;3.25;;;4.50;99.90;;;;;;5042156;28;20723;-53
2022/04/01 07:30:20;;;;;;;4.28;2.95;;;4.50;99.90;;;;;;5048942;28;20428;-54
2022/04/01 07:32:50;;;;;;;8.27;5.82;;;4.40;99.90;;;;;;5054279;28;20627;-53
2022/04/01 07:35:17;;;;;;;11.50;7.88;;;4.60;99.90;;;;;;5047056;28;20419;-51
2022/04/01 07:37:45;;;;;;;5.72;3.60;;;4.60;99.90;;;;;;5037766;28;20916;-54
2022/04/01 07:40:13;;;;;;;5.25;3.00;;;4.60;99.90;;;;;;5050147;28;20769;-51
2022/04/01 07:42:42;;;;;;;6.35;3.05;;;4.50;99.90;;;;;;5047728;28;20459;-56
2022/04/01 07:45:10;;;;;;;5.72;3.20;;;4.50;99.90;;;;;;5041581;28;20510;-52
2022/04/01 07:47:37;;;;;;;5.93;2.83;;;4.60;99.90;;;;;;5053077;28;20492;-51
2022/04/01 07:50:05;;;;;;;5.77;3.70;;;4.60;99.90;;;;;;5053570;28;20888;-54
2022/04/01 07:52:33;;;;;;;4.73;3.07;;;4.80;99.90;;;;;;5051033;28;20882;-53
2022/04/01 07:55:01;;;;;;;7.43;4.68;;;4.90;99.90;;;;;;5038002;28;20828;-53
2022/04/01 07:57:28;;;;;;;6.05;3.53;;;4.90;99.90;;;;;;5050637;28;20441;-56
2022/04/01 07:59:56;;;;;;;5.28;3.47;;;4.90;99.90;;;;;;5039542;28;20791;-55
2022/04/01 08:02:23;;;;;;;5.80;3.03;;;4.90;99.90;;;;;;5047699;28;20540;-52
2022/04/01 08:04:50;;;;;;;6.68;3.45;;;4.80;99.90;;;;;;5053807;28;20878;-56
2022/04/01 08:07:17;;;;;;;6.05;3.35;;;4.90;99.90;;;;;;5045784;28;20826;-52
2022/04/01 08:09:44;;;;;;;6.38;3.70;;;4.90;99.90;;;;;;5042300;28;20897;-55
2022/04/01 08:12:11;;;;;;;5.80;3.38;;;4.80;99.90;;;;;;5038393;28;20878;-55
2022/04/01 08:14:40;;;;;;;7.97;3.60;;;5.00;99.90;;;;;;5041024;28;20898;-56
2022/04/01 08:17:11;;;;;;;5.60;3.27;;;5.20;99.90;;;;;;5044459;28;20472;-56
2022/04/01 08:19:38;;;;;;;8.63;3.10;;;5.20;99.90;;;;;;5051549;28;20737;-55
2022/04/01 08:22:05;;;;;;;4.85;3.05;;;5.30;99.90;;;;;;5048764;28;20433;-51
2022/04/01 08:24:32;;;;;;;5.50;2.90;;;5.20;99.90;;;;;;5050569;28;20421;-55
2022/04/01 08:27:00;;;;;;;5.18;3.72;;;5.30;99.90;;;;;;5046128;28;20537;-54
2022/04/01 08:29:27;;;;;;;6.95;3.80;;;4.90;99.90;;;;;;5038139;28;20425;-56
2022/04/01 08:31:54;;;;;;;6.75;3.83;;;4.70;99.90;;;;;;5038815;28;21053;-56
2022/04/01 08:34:23;;;;;;;8.10;4.45;;;4.80;99.90;;;;;;5046048;28;20818;-56
2022/04/01 08:36:50;;;;;;;6.32;4.10;;;4.60;99.90;;;;;;5033152;28;20437;-56
2022/04/01 08:39:18;;;;;;;5.95;3.70;;;4.60;99.90;;;;;;5045727;28;20870;-52
2022/04/01 08:41:44;;;;;;;7.10;3.58;;;4.70;99.90;;;;;;5042644;28;20501;-51
2022/04/01 08:44:15;;;;;;;6.45;3.15;;;4.80;99.90;;;;;;5052866;28;20526;-54
2022/04/01 08:46:42;;;;;;;7.53;4.07;;;4.70;99.90;;;;;;5051089;28;20516;-54
2022/04/01 08:49:12;;;;;;;5.97;3.78;;;4.90;99.90;;;;;;5044436;28;21864;-55
2022/04/01 08:51:41;;;;;;;5.73;3.70;;;5.00;99.90;;;;;;5046699;28;20503;-53
2022/04/01 08:54:08;;;;;;;5.90;2.95;;;5.00;99.90;;;;;;5045387;28;20453;-54
2022/04/01 08:56:35;;;;;;;5.30;3.70;;;4.70;99.90;;;;;;5044553;28;20524;-54
2022/04/01 08:59:02;;;;;;;4.90;3.13;;;4.80;99.90;;;;;;5050257;28;20425;-53
2022/04/01 09:01:40;;;;;;;5.20;2.92;;;4.90;99.90;;;;;;5053472;28;20499;-52
2022/04/01 09:04:21;;;;;;;4.10;2.50;;;5.10;99.90;;;;;;5046589;28;20436;-51
2022/04/01 09:06:50;;;;;;;5.97;3.20;;;5.20;99.90;;;;;;5048374;28;20468;-53
2022/04/01 09:09:29;;;;;;;5.13;2.55;;;5.40;99.90;;;;;;5046663;28;20433;-53
2022/04/01 09:12:11;;;;;;;2.80;1.70;;;5.60;99.90;;;;;;5045399;28;20433;-54
2022/04/01 09:14:39;;;;;;;4.90;2.17;;;6.00;99.90;;;;;;5047170;28;20501;-53
2022/04/01 09:17:07;;;;;;;4.22;2.10;;;6.20;99.90;;;;;;5045352;28;20519;-53
2022/04/01 09:19:35;;;;;;;2.78;1.70;;;6.40;99.90;;;;;;5046409;28;20574;-53
2022/04/01 09:22:18;;;;;;;4.00;2.30;;;6.30;99.90;;;;;;5051447;28;20433;-51
2022/04/01 09:24:55;;;;;;;3.15;1.77;;;5.90;99.90;;;;;;5048006;28;20987;-52
2022/04/01 09:27:38;;;;;;;2.50;1.60;;;5.70;99.90;;;;;;5043514;28;20528;-52
2022/04/01 09:30:06;;;;;;;2.10;1.40;;;6.00;99.90;;;;;;5051366;28;20428;-49
2022/04/01 09:32:37;;;;;;;2.50;1.50;;;6.20;99.90;;;;;;5034508;28;20525;-52
2022/04/01 09:35:05;;;;;;;3.17;1.75;;;6.00;99.90;;;;;;5043730;28;20431;-52
2022/04/01 09:37:43;;;;;;;3.03;1.70;;;6.00;99.90;;;;;;5046162;28;20851;-51
2022/04/01 09:40:11;;;;;;;2.58;1.75;;;5.60;99.90;;;;;;5040975;28;20509;-52
2022/04/01 09:42:39;;;;;;;2.47;1.45;;;5.80;99.90;;;;;;5049631;28;20440;-54
2022/04/01 09:45:07;;;;;;;2.38;1.40;;;5.70;99.90;;;;;;5054799;28;20876;-52
2022/04/01 09:47:39;;;;;;;4.13;2.30;;;6.00;99.90;;;;;;5053522;28;20429;-50
2022/04/01 09:50:15;;;;;;;3.95;1.80;;;6.10;99.90;;;;;;5052411;28;20474;-51
2022/04/01 09:52:45;;;;;;;3.28;2.38;;;6.20;99.90;;;;;;5053626;28;20436;-55
2022/04/01 09:55:12;;;;;;;2.55;1.30;;;6.30;99.90;;;;;;5053166;28;20520;-52
2022/04/01 09:57:40;;;;;;;7.80;4.95;;;6.30;99.90;;;;;;5053098;28;20425;-60
2022/04/01 10:00:09;;;;;;;5.95;4.05;;;6.30;99.90;;;;;;5053628;28;20484;-56
2022/04/01 10:02:38;;;;;;;3.33;1.40;;;6.00;99.70;;;;;;5053228;28;20433;-50
2022/04/01 10:05:06;;;;;;;1.92;1.10;;;5.90;99.90;;;;;;5052974;28;20861;-53
2022/04/01 10:07:34;;;;;;;3.60;1.60;;;6.20;99.90;;;;;;5049270;28;20452;-53
2022/04/01 10:10:05;;;;;;;9.40;5.38;;;6.50;99.90;;;;;;5051244;28;20425;-51
2022/04/01 10:12:41;;;;;;;4.53;3.00;;;6.30;99.90;;;;;;5039953;28;20860;-52
2022/04/01 10:15:10;;;;;;;5.40;2.63;;;6.10;99.90;;;;;;5052769;28;20432;-52
2022/04/01 10:17:40;;;;;;;2.50;1.40;;;6.30;99.90;;;;;;5052196;28;20507;-52
2022/04/01 10:20:08;;;;;;;3.00;1.50;;;5.90;99.90;;;;;;5053310;28;20838;-50
2022/04/01 10:22:36;;;;;;;2.13;1.30;;;6.00;99.90;;;;;;5053115;28;20867;-49
2022/04/01 10:25:13;;;;;;;1.70;1.05;;;6.10;99.90;;;;;;5052307;28;20425;-49
2022/04/01 10:27:43;;;;;;;1.50;1.00;;;6.10;99.90;;;;;;5052109;28;20491;-52
2022/04/01 10:30:14;;;;;;;1.40;1.00;;;6.00;99.90;;;;;;5048718;28;20433;-52
2022/04/01 10:32:43;;;;;;;1.50;0.90;;;6.10;99.90;;;;;;5049770;28;20429;-48
2022/04/01 10:35:21;;;;;;;1.52;1.00;;;6.30;99.90;;;;;;5049451;28;20480;-51
2022/04/01 10:37:54;;;;;;;1.23;0.80;;;6.10;99.90;;;;;;5051037;28;20974;-55
2022/04/01 10:40:25;;;;;;;1.40;0.80;;;6.00;99.90;;;;;;5048716;28;20424;-50
2022/04/01 10:42:52;;;;;;;1.00;0.70;;;6.10;99.90;;;;;;5048549;28;20668;-50
2022/04/01 10:45:26;;;;;;;1.23;0.70;;;5.70;99.90;;;;;;5049716;28;20544;-61
2022/04/01 10:53:37;;;;;;;1.00;0.73;;;5.30;99.90;;;;;;5052364;28;20409;-50
2022/04/01 10:56:37;;;;;;;0.80;0.50;;;5.20;99.90;;;;;;5055004;28;20439;-46
2022/04/01 10:59:08;;;;;;;0.80;0.60;;;5.30;99.90;;;;;;5036990;28;20885;-46
2022/04/01 11:01:37;;;;;;;0.80;0.50;;;5.30;99.90;;;;;;5049344;28;20528;-51
2022/04/01 11:04:26;;;;;;;0.95;0.57;;;5.60;99.90;;;;;;5051892;28;20440;-51
2022/04/01 11:06:54;;;;;;;0.90;0.50;;;5.80;99.90;;;;;;5046163;28;20514;-48
2022/04/01 11:09:35;;;;;;;2.25;0.50;;;5.90;99.90;;;;;;5052004;28;20524;-50
2022/04/01 11:12:25;;;;;;;0.80;0.50;;;6.10;99.90;;;;;;5048256;28;20796;-48
2022/04/01 11:15:11;;;;;;;0.80;0.50;;;6.40;99.90;;;;;;5052697;28;20429;-49
2022/04/01 11:18:07;;;;;;;1.00;0.50;;;6.80;92.50;;;;;;5052918;28;20440;-48
2022/04/01 11:20:35;;;;;;;0.80;0.50;;;6.80;39.50;;;;;;5054347;28;20856;-51
2022/04/01 11:23:05;;;;;;;1.00;0.52;;;6.20;67.50;;;;;;5053610;28;20574;-44
2022/04/01 11:26:02;;;;;;;0.77;0.50;;;6.30;99.90;;;;;;5051940;28;20512;-52
2022/04/01 11:28:30;;;;;;;1.10;0.52;;;6.60;99.90;;;;;;4951306;29;20457;-48
2022/04/01 11:31:09;;;;;;;0.80;0.50;;;6.80;90.40;;;;;;5028103;28;20461;-50
2022/04/01 11:33:36;;;;;;;1.00;0.60;;;6.90;92.90;;;;;;5050385;28;20642;-45
2022/04/01 11:36:04;;;;;;;1.00;0.60;;;6.90;60.00;;;;;;5050848;28;20524;-49
2022/04/01 11:38:31;;;;;;;0.70;0.50;;;6.90;70.90;;;;;;5050575;28;20432;-46
2022/04/01 11:41:00;;;;;;;1.40;0.50;;;7.10;48.70;;;;;;5052436;28;20506;-48
2022/04/01 11:43:28;;;;;;;0.82;0.50;;;7.20;28.80;;;;;;5053580;28;20800;-48
2022/04/01 11:45:58;;;;;;;1.50;0.70;;;6.70;38.30;;;;;;5054192;28;20472;-51
2022/04/01 11:48:29;;;;;;;1.40;0.88;;;6.60;95.60;;;;;;5053548;28;20841;-49
2022/04/01 11:50:58;;;;;;;0.90;0.60;;;6.40;96.90;;;;;;5051732;28;20531;-48
2022/04/01 11:53:26;;;;;;;1.40;0.70;;;6.00;99.90;;;;;;5051156;28;20512;-47
2022/04/01 11:55:54;;;;;;;1.00;0.70;;;6.00;99.90;;;;;;5050821;28;20488;-49
2022/04/01 11:58:22;;;;;;;0.90;0.70;;;5.90;99.90;;;;;;5048129;28;20478;-46
2022/04/01 12:00:49;;;;;;;1.00;0.70;;;5.90;99.90;;;;;;5046977;28;20823;-48
2022/04/01 12:03:21;;;;;;;1.10;0.70;;;5.80;99.90;;;;;;5047355;28;20417;-49
2022/04/01 12:08:41;;;;;;;1.40;0.77;;;5.80;99.90;;;;;;5043254;28;20425;-47
2022/04/01 12:08:42;;;;;;;1.00;0.80;;;5.70;99.90;;;;;;5038395;28;20413;-49
2022/04/01 12:11:09;;;;;;;1.20;0.70;;;6.00;99.90;;;;;;5050088;28;20452;-49
2022/04/01 12:13:42;;;;;;;1.20;0.80;;;5.80;73.70;;;;;;5051240;28;20421;-52
2022/04/01 12:16:09;;;;;;;3.78;2.53;;;5.50;95.60;;;;;;5050039;28;20484;-50
2022/04/01 12:18:37;;;;;;;4.38;2.38;;;5.30;99.90;;;;;;5051677;28;20425;-46
2022/04/01 12:21:05;;;;;;;32.83;22.83;;;5.40;99.90;;;;;;5052472;28;20535;-46
2022/04/01 12:23:35;;;;;;;2.13;1.30;;;5.30;99.90;;;;;;5050523;28;20432;-48
2022/04/01 12:26:02;;;;;;;1.17;0.90;;;5.50;99.90;;;;;;5051606;28;20457;-50
2022/04/01 12:28:37;;;;;;;4.60;2.85;;;5.30;99.90;;;;;;5051409;28;20861;-48
2022/04/01 12:31:04;;;;;;;1.45;1.00;;;5.30;99.90;;;;;;5052319;28;20433;-49
2022/04/01 12:33:33;;;;;;;1.50;0.90;;;5.30;99.90;;;;;;5050089;28;20875;-52
2022/04/01 12:36:01;;;;;;;1.40;0.90;;;5.10;99.90;;;;;;5050127;28;20790;-47
2022/04/01 12:38:32;;;;;;;1.90;1.10;;;4.70;99.90;;;;;;5050550;28;20425;-52
2022/04/01 12:41:00;;;;;;;1.60;1.00;;;4.80;99.90;;;;;;5051823;28;20461;-49
2022/04/01 12:43:39;;;;;;;1.75;1.00;;;4.80;99.90;;;;;;5051460;28;20523;-49
2022/04/01 12:46:08;;;;;;;1.30;0.98;;;4.70;99.90;;;;;;5049947;28;20429;-52
2022/04/01 12:48:56;;;;;;;2.13;1.20;;;4.80;99.90;;;;;;5050558;28;20421;-53
2022/04/01 12:51:25;;;;;;;1.50;1.00;;;4.50;99.90;;;;;;5046493;28;20943;-50
2022/04/01 12:54:02;;;;;;;1.45;1.10;;;4.50;99.90;;;;;;5052080;28;20421;-52
2022/04/01 12:56:33;;;;;;;1.48;1.08;;;4.60;99.90;;;;;;5050846;28;20420;-54
2022/04/01 12:59:03;;;;;;;1.35;1.00;;;4.70;99.90;;;;;;5051594;28;20461;-48
2022/04/01 13:01:32;;;;;;;1.80;1.30;;;4.90;99.90;;;;;;5052268;28;20896;-50
2022/04/01 13:03:59;;;;;;;1.90;1.20;;;5.00;99.90;;;;;;5052503;28;20464;-50
2022/04/01 13:06:27;;;;;;;5.22;3.75;;;5.00;99.90;;;;;;5050535;28;20491;-50
2022/04/01 13:09:00;;;;;;;1.70;1.10;;;4.90;99.90;;;;;;5051668;28;20444;-50
2022/04/01 13:11:39;;;;;;;1.57;1.10;;;4.80;99.90;;;;;;5051728;28;20464;-49
2022/04/01 13:14:08;;;;;;;1.60;1.00;;;4.60;99.90;;;;;;5051366;28;20780;-51
2022/04/01 13:16:39;;;;;;;1.40;1.10;;;4.60;99.90;;;;;;5055341;28;20431;-47
2022/04/01 13:19:26;;;;;;;2.30;1.10;;;4.60;99.90;;;;;;5056457;28;20421;-51
2022/04/01 13:21:54;;;;;;;2.40;1.10;;;4.60;99.90;;;;;;5055302;28;20433;-50
2022/04/01 13:24:25;;;;;;;1.70;1.10;;;4.60;99.90;;;;;;5055517;28;20941;-47
2022/04/01 13:26:53;;;;;;;2.10;1.10;;;4.60;99.90;;;;;;5056114;28;20483;-50